This is the latest recevied weather packets stored in our database for station/object W8XLR-2. If no packets are shown the sender has not sent any weather packets the latest 1 day(s).
| Time | Temp. | Humidity | Pressure | Rain* | Wind** | Luminosity | Snow |
|---|---|---|---|---|---|---|---|
| 1778082412 | 9.44° C | 91% | 1013.3 hPa | 0 mm | - | - | - |
| 1778080612 | 8.89° C | 96% | 1012.6 hPa | 0 mm | - | - | - |
| 1778079584 | 8.33° C | 97% | 1012.2 hPa | 0 mm | - | - | - |
| 1778078210 | 8.33° C | 97% | 1012.3 hPa | 0 mm | - | - | - |
| 1778076412 | 8.33° C | 97% | 1011.9 hPa | 0 mm | - | - | - |
| 1778075808 | 8.33° C | 97% | 1011.7 hPa | 0 mm | - | - | - |
| 1778072812 | 7.78° C | 97% | 1011.5 hPa | 0 mm | - | - | - |
| 1778070409 | 7.22° C | 97% | 1010.9 hPa | 0.25 mm | - | - | - |
| 1778069808 | 7.22° C | 97% | 1010.9 hPa | 0.25 mm | - | - | - |
| 1778068130 | 7.22° C | 97% | 1011.1 hPa | 0 mm | - | - | - |
| 1778067413 | 7.22° C | 97% | 1010.8 hPa | 0.25 mm | - | - | - |
| 1778065008 | 7.22° C | 97% | 1009.4 hPa | 2.79 mm | - | - | - |
| 1778064410 | 7.22° C | 97% | 1009.4 hPa | 2.79 mm | - | - | - |
| 1778063216 | 7.22° C | 97% | 1010.2 hPa | 2.03 mm | - | - | - |
| 1778062609 | 7.22° C | 97% | 1010.2 hPa | 2.03 mm | - | - | - |
| 1778061409 | 7.22° C | 96% | 1010 hPa | 0.76 mm | - | - | - |
| 1778060810 | 7.22° C | 96% | 1010 hPa | 0.76 mm | - | - | - |
| 1778060213 | 7.22° C | 96% | 1009.8 hPa | 1.52 mm | - | - | - |
| 1778058409 | 7.78° C | 96% | 1009.7 hPa | 2.54 mm | - | - | - |
| 1778057208 | 8.33° C | 96% | 1009.7 hPa | 2.79 mm | - | - | - |
| 1778056611 | 8.33° C | 96% | 1009.7 hPa | 2.54 mm | - | - | - |
| 1778056011 | 8.89° C | 96% | 1009.6 hPa | 2.29 mm | - | - | - |
| 1778054812 | 8.89° C | 96% | 1009.3 hPa | 1.78 mm | - | - | - |
| 1778054210 | 8.89° C | 97% | 1009.1 hPa | 1.78 mm | - | - | - |
| 1778053011 | 8.89° C | 96% | 1009.2 hPa | 1.78 mm | - | - | - |
* Rain latest hour (hover to see other rain measurements)
** Current wind speed in m/s (hover to see current wind gust speed)